createdAt,value
2019-03-22T00:01:47.932Z,72.90
2019-03-22T00:04:18.120Z,72.80
2019-03-22T00:06:48.301Z,72.90
2019-03-22T00:09:18.809Z,72.70
2019-03-22T00:11:48.996Z,73.00
2019-03-22T00:14:19.463Z,73.00
2019-03-22T00:16:49.730Z,73.00
2019-03-22T00:19:20.259Z,73.20
2019-03-22T00:21:50.455Z,73.20
2019-03-22T00:24:20.628Z,73.40
2019-03-22T00:26:51.044Z,73.20
2019-03-22T00:29:21.225Z,73.20
2019-03-22T00:31:51.427Z,73.40
2019-03-22T00:34:21.631Z,73.30
2019-03-22T00:36:51.884Z,73.50
2019-03-22T00:39:22.067Z,73.50
2019-03-22T00:41:52.249Z,73.80
2019-03-22T00:44:22.425Z,73.90
2019-03-22T00:46:52.588Z,73.90
2019-03-22T00:49:22.790Z,74.00
2019-03-22T00:51:52.951Z,74.20
2019-03-22T00:54:23.699Z,74.30
2019-03-22T00:56:53.894Z,74.20
2019-03-22T00:59:24.202Z,74.30
2019-03-22T01:01:54.385Z,74.40
2019-03-22T01:04:24.576Z,74.30
2019-03-22T01:06:54.778Z,74.30
2019-03-22T01:09:24.963Z,74.40
2019-03-22T01:11:55.137Z,74.50
2019-03-22T01:14:25.311Z,74.50
2019-03-22T01:16:55.492Z,74.40
2019-03-22T01:19:25.692Z,74.40
2019-03-22T01:21:55.841Z,74.50
2019-03-22T01:24:26.044Z,74.50
2019-03-22T01:26:56.203Z,74.40
2019-03-22T01:29:26.502Z,74.50
2019-03-22T01:31:56.668Z,74.60
2019-03-22T01:34:26.880Z,74.70
2019-03-22T01:36:57.104Z,74.70
2019-03-22T01:39:27.295Z,74.70
2019-03-22T01:41:57.495Z,74.80
2019-03-22T01:44:27.677Z,74.80
2019-03-22T01:46:57.997Z,74.90
2019-03-22T01:49:29.296Z,74.70
2019-03-22T01:51:59.560Z,74.70
2019-03-22T01:54:30.238Z,74.60
2019-03-22T01:57:00.536Z,74.80
2019-03-22T01:59:30.720Z,75.00
2019-03-22T02:02:00.889Z,75.00
2019-03-22T02:04:31.088Z,75.20
2019-03-22T02:07:01.264Z,75.40
2019-03-22T02:09:31.477Z,75.30
2019-03-22T02:12:01.732Z,75.40
2019-03-22T02:14:32.004Z,75.50
2019-03-22T02:17:04.188Z,75.70
2019-03-22T02:19:34.431Z,75.60
2019-03-22T02:22:04.804Z,75.60
2019-03-22T02:24:35.130Z,75.40
2019-03-22T02:27:05.447Z,75.60
2019-03-22T02:29:36.667Z,75.60
2019-03-22T02:32:06.976Z,75.70
2019-03-22T02:34:37.243Z,75.50
2019-03-22T02:37:07.492Z,75.60
2019-03-22T02:39:37.863Z,75.60
2019-03-22T02:42:08.301Z,75.60
2019-03-22T02:44:38.572Z,75.70
2019-03-22T02:47:08.881Z,75.60
2019-03-22T02:49:39.083Z,75.60
2019-03-22T02:52:09.318Z,75.70
2019-03-22T02:54:41.347Z,76.30
2019-03-22T02:57:13.179Z,75.20
2019-03-22T02:59:43.483Z,75.00
2019-03-22T03:02:13.895Z,74.60
2019-03-22T03:04:44.144Z,74.20
2019-03-22T03:07:14.557Z,74.00
2019-03-22T03:09:44.845Z,74.10
2019-03-22T03:12:15.116Z,74.10
2019-03-22T03:14:45.565Z,74.30
2019-03-22T03:17:15.886Z,74.30
2019-03-22T03:19:46.123Z,74.60
2019-03-22T03:22:16.472Z,74.60
2019-03-22T03:24:46.724Z,74.80
2019-03-22T03:27:17.842Z,74.80
2019-03-22T03:29:48.081Z,75.20
2019-03-22T03:32:18.349Z,74.90
2019-03-22T03:34:48.613Z,75.20
2019-03-22T03:37:18.903Z,75.00
2019-03-22T03:39:49.242Z,74.90
2019-03-22T03:42:19.550Z,75.00
2019-03-22T03:44:49.803Z,75.10
2019-03-22T03:47:20.168Z,75.20
2019-03-22T03:49:50.418Z,75.20
2019-03-22T03:52:20.823Z,75.20
2019-03-22T03:54:51.397Z,75.50
2019-03-22T03:57:21.646Z,75.70
2019-03-22T03:59:51.897Z,75.70
2019-03-22T04:02:22.249Z,75.80
2019-03-22T04:04:52.606Z,76.00
2019-03-22T04:07:23.833Z,76.00
2019-03-22T04:09:54.099Z,76.20
2019-03-22T04:12:24.349Z,76.30
2019-03-22T04:14:54.601Z,75.90
2019-03-22T04:17:29.409Z,75.80
2019-03-22T04:19:59.736Z,75.50
2019-03-22T04:22:30.026Z,75.40
2019-03-22T04:25:00.520Z,75.20
2019-03-22T04:27:30.920Z,75.10
2019-03-22T04:30:01.351Z,75.00
2019-03-22T04:32:31.674Z,74.70
2019-03-22T04:35:01.928Z,74.30
2019-03-22T04:37:32.178Z,73.90
2019-03-22T04:40:02.431Z,73.80
2019-03-22T04:42:32.669Z,73.60
2019-03-22T04:45:03.160Z,73.50
2019-03-22T04:47:33.646Z,73.80
2019-03-22T04:50:04.350Z,73.90
2019-03-22T04:52:35.048Z,74.10
2019-03-22T04:55:05.676Z,74.20
2019-03-22T04:57:37.074Z,74.10
2019-03-22T05:00:08.616Z,74.30
2019-03-22T05:02:41.112Z,74.40
2019-03-22T05:05:13.204Z,74.50
2019-03-22T05:07:44.611Z,74.50
2019-03-22T05:10:16.625Z,74.50
2019-03-22T05:12:48.511Z,74.60
2019-03-22T05:15:19.731Z,74.40
2019-03-22T05:17:50.440Z,74.20
2019-03-22T05:20:21.835Z,74.10
2019-03-22T05:22:55.259Z,74.00
2019-03-22T05:25:26.879Z,74.00
2019-03-22T05:27:59.867Z,73.90
2019-03-22T05:31:19.052Z,73.70
2019-03-22T05:33:49.308Z,73.60
2019-03-22T05:36:19.620Z,73.30
2019-03-22T05:38:49.917Z,73.70
2019-03-22T05:41:20.158Z,72.80
2019-03-22T05:43:50.400Z,72.70
2019-03-22T05:46:20.737Z,72.80
2019-03-22T05:48:50.984Z,73.40
2019-03-22T05:51:21.240Z,73.60
2019-03-22T05:53:51.547Z,73.80
2019-03-22T05:56:21.877Z,73.80
2019-03-22T05:58:52.148Z,73.70
2019-03-22T06:01:22.596Z,73.20
2019-03-22T06:03:52.816Z,72.90
2019-03-22T06:06:23.059Z,72.60
2019-03-22T06:08:53.546Z,72.40
2019-03-22T06:11:23.948Z,72.30
2019-03-22T06:13:54.492Z,72.30
2019-03-22T06:16:25.044Z,72.20
2019-03-22T06:18:55.284Z,72.30
2019-03-22T06:21:25.624Z,72.40
2019-03-22T06:23:56.295Z,72.50
2019-03-22T06:26:26.725Z,72.60
2019-03-22T06:28:56.973Z,72.60
2019-03-22T06:31:27.253Z,72.70
2019-03-22T06:33:57.596Z,73.10
2019-03-22T06:36:28.191Z,73.30
2019-03-22T06:38:58.420Z,73.40
2019-03-22T06:41:28.857Z,73.80
2019-03-22T06:44:01.381Z,73.90
2019-03-22T06:46:31.704Z,74.10
2019-03-22T06:49:01.948Z,74.30
2019-03-22T06:51:33.264Z,74.10
2019-03-22T06:54:03.576Z,74.90
2019-03-22T06:56:34.395Z,75.40
2019-03-22T06:59:04.712Z,75.80
2019-03-22T07:01:35.108Z,75.90
2019-03-22T07:04:05.487Z,76.00
2019-03-22T07:06:35.828Z,76.00
2019-03-22T07:09:08.992Z,75.90
2019-03-22T07:11:41.711Z,76.30
2019-03-22T07:14:11.664Z,76.20
2019-03-22T07:16:42.988Z,76.10
2019-03-22T07:19:13.310Z,76.30
2019-03-22T07:21:43.808Z,76.60
2019-03-22T07:24:14.062Z,76.90
2019-03-22T07:26:44.320Z,77.20
2019-03-22T07:29:14.557Z,77.30
2019-03-22T07:31:44.809Z,77.60
2019-03-22T07:34:15.112Z,77.50
2019-03-22T07:36:46.957Z,76.60
2019-03-22T07:39:17.496Z,76.20
2019-03-22T07:41:47.776Z,76.20
2019-03-22T07:44:18.028Z,76.40
2019-03-22T07:46:48.444Z,75.90
2019-03-22T07:49:18.683Z,76.00
2019-03-22T07:51:48.959Z,75.80
2019-03-22T07:54:19.237Z,75.90
2019-03-22T07:56:49.647Z,75.30
2019-03-22T07:59:19.941Z,73.70
2019-03-22T08:01:50.309Z,72.60
2019-03-22T08:04:20.629Z,73.30
2019-03-22T08:06:50.882Z,70.10
2019-03-22T08:09:21.219Z,69.50
2019-03-22T08:11:51.488Z,67.00
2019-03-22T08:14:21.729Z,65.00
2019-03-22T08:16:52.207Z,63.70
2019-03-22T08:19:22.568Z,63.50
2019-03-22T08:21:53.087Z,62.20
2019-03-22T08:24:23.315Z,61.50
2019-03-22T08:26:53.602Z,60.00
2019-03-22T08:29:23.856Z,59.20
2019-03-22T08:31:54.977Z,57.90
2019-03-22T08:34:25.281Z,57.00
2019-03-22T08:36:55.682Z,55.00
2019-03-22T08:39:25.937Z,54.20
2019-03-22T08:41:56.177Z,53.70
2019-03-22T08:44:26.499Z,53.00
2019-03-22T08:46:56.789Z,52.40
2019-03-22T08:49:27.311Z,51.20
2019-03-22T08:51:57.730Z,49.90
2019-03-22T08:54:28.001Z,49.20
2019-03-22T08:56:58.237Z,48.10
2019-03-22T08:59:28.525Z,47.50
2019-03-22T09:01:58.767Z,45.80
2019-03-22T09:04:29.085Z,45.80
2019-03-22T09:07:00.423Z,44.70
2019-03-22T09:09:40.918Z,43.90
2019-03-22T09:12:02.697Z,42.90
2019-03-22T09:14:33.034Z,42.70
2019-03-22T09:17:03.355Z,41.70
2019-03-22T09:19:33.597Z,40.60
2019-03-22T09:22:03.928Z,40.50
2019-03-22T09:24:39.294Z,40.30
2019-03-22T09:27:06.155Z,39.90
2019-03-22T09:29:36.506Z,40.30
2019-03-22T09:32:06.848Z,39.40
2019-03-22T09:34:37.110Z,39.20
2019-03-22T09:37:08.985Z,38.20
2019-03-22T09:39:39.446Z,38.00
2019-03-22T09:42:09.861Z,37.60
2019-03-22T09:44:44.639Z,37.10
2019-03-22T09:47:12.280Z,36.60
2019-03-22T09:49:42.740Z,36.70
2019-03-22T09:52:13.094Z,36.20
2019-03-22T09:54:44.431Z,35.80
2019-03-22T09:57:14.652Z,35.40
2019-03-22T09:59:45.045Z,34.60
2019-03-22T10:02:15.335Z,34.30
2019-03-22T10:04:45.591Z,33.80
2019-03-22T10:07:16.044Z,33.80
2019-03-22T10:09:46.372Z,34.00
2019-03-22T10:12:16.621Z,33.40
2019-03-22T10:14:46.919Z,33.40
2019-03-22T11:50:12.732Z,38.60
2019-03-22T11:52:50.139Z,38.40
2019-03-22T12:10:32.824Z,40.10
2019-03-22T12:24:02.653Z,40.00
2019-03-22T12:34:29.275Z,39.70
2019-03-22T12:36:59.528Z,41.10
2019-03-22T12:39:29.760Z,40.90
2019-03-22T13:10:57.541Z,40.30
2019-03-22T13:13:27.787Z,40.20
2019-03-22T13:15:58.019Z,40.10
2019-03-22T13:18:28.263Z,40.30
2019-03-22T13:20:58.513Z,40.50
2019-03-22T13:23:28.772Z,41.40
2019-03-22T15:39:47.163Z,40.70
2019-03-22T15:42:18.667Z,40.70
2019-03-22T15:44:49.315Z,40.90
2019-03-22T15:51:09.436Z,40.70
2019-03-22T15:53:39.803Z,40.40
2019-03-22T15:56:10.112Z,41.00
2019-03-22T15:58:40.329Z,40.60
2019-03-22T16:01:10.659Z,40.80
2019-03-22T16:03:44.352Z,41.20
2019-03-22T16:06:13.000Z,40.60
2019-03-22T16:08:43.331Z,40.70
2019-03-22T16:11:13.586Z,40.50
2019-03-22T16:13:43.802Z,40.30
2019-03-22T16:16:14.508Z,40.60
2019-03-22T16:18:44.794Z,40.70
2019-03-22T16:21:15.115Z,40.30
2019-03-22T16:23:45.348Z,40.30
2019-03-22T16:26:15.744Z,40.80
2019-03-22T16:28:45.962Z,40.60
2019-03-22T16:31:16.282Z,40.70
2019-03-22T16:33:54.026Z,40.60
2019-03-22T16:36:18.468Z,40.40
2019-03-22T16:38:48.781Z,40.50
2019-03-22T16:41:19.011Z,40.60
2019-03-22T16:43:49.231Z,40.40
2019-03-22T16:46:19.523Z,40.60
2019-03-22T16:48:50.770Z,40.80
2019-03-22T16:51:20.995Z,40.70
2019-03-22T16:53:51.231Z,40.70
2019-03-22T16:56:21.448Z,40.70
2019-03-22T16:58:51.676Z,40.80
2019-03-22T17:01:21.996Z,41.00
2019-03-22T17:03:52.334Z,40.60
2019-03-22T17:06:22.638Z,40.90
2019-03-22T17:08:52.868Z,41.00
2019-03-22T17:11:23.098Z,40.90
2019-03-22T17:13:53.348Z,41.00
2019-03-22T17:16:23.661Z,41.00
2019-03-22T17:18:53.953Z,41.30
2019-03-22T17:21:24.177Z,41.40
2019-03-22T17:23:54.443Z,41.40
2019-03-22T17:26:24.667Z,42.80
2019-03-22T17:28:54.903Z,42.70
2019-03-22T17:31:25.138Z,43.90
2019-03-22T17:33:55.364Z,43.00
2019-03-22T17:36:25.587Z,42.20
2019-03-22T17:38:55.901Z,42.40
2019-03-22T17:41:26.140Z,42.40
2019-03-22T17:43:56.439Z,42.80
2019-03-22T17:46:26.747Z,42.80
2019-03-22T17:48:56.975Z,43.70
2019-03-22T17:51:27.225Z,42.70
2019-03-22T17:53:57.479Z,42.80
2019-03-22T17:56:27.692Z,43.70
2019-03-22T17:58:57.915Z,42.80
2019-03-22T18:01:28.192Z,43.00
2019-03-22T18:03:58.424Z,43.60
2019-03-22T18:06:28.668Z,43.40
2019-03-22T18:08:59.968Z,43.40
2019-03-22T18:11:30.196Z,43.60
2019-03-22T18:14:00.445Z,44.30
2019-03-22T18:16:30.658Z,44.30
2019-03-22T18:19:00.912Z,44.00
2019-03-22T18:21:31.208Z,44.10
2019-03-22T18:24:01.445Z,45.30
2019-03-22T18:26:32.631Z,45.80
2019-03-22T18:29:02.923Z,46.30
2019-03-22T18:31:33.164Z,45.70
2019-03-22T18:34:04.672Z,46.00
2019-03-22T18:36:34.896Z,45.60
2019-03-22T18:39:07.004Z,46.20
2019-03-22T18:41:37.224Z,46.10
2019-03-22T18:44:07.575Z,46.50
2019-03-22T18:46:37.827Z,46.60
2019-03-22T18:49:08.162Z,46.40
2019-03-22T18:51:38.419Z,47.20
2019-03-22T18:54:08.778Z,46.80
2019-03-22T18:56:41.928Z,46.80
2019-03-22T18:59:12.158Z,46.90
2019-03-22T19:01:42.388Z,47.70
2019-03-22T19:04:12.608Z,48.10
2019-03-22T19:06:42.844Z,47.90
2019-03-22T19:09:13.128Z,48.60
2019-03-22T19:11:43.669Z,48.90
2019-03-22T19:14:13.895Z,48.80
2019-03-22T19:16:44.130Z,48.50
2019-03-22T19:19:14.475Z,48.90
2019-03-22T19:21:44.765Z,48.80
2019-03-22T19:24:14.993Z,49.10
2019-03-22T19:26:45.279Z,49.20
2019-03-22T19:29:15.539Z,49.00
2019-03-22T19:31:45.859Z,49.80
2019-03-22T19:34:16.095Z,49.60
2019-03-22T19:36:46.349Z,50.00
2019-03-22T19:39:17.642Z,49.50
2019-03-22T19:41:47.903Z,49.90
2019-03-22T19:44:18.120Z,49.70
2019-03-22T19:46:48.472Z,49.80
2019-03-22T19:49:18.698Z,50.00
2019-03-22T19:51:48.954Z,50.20
2019-03-22T19:54:19.180Z,50.30
2019-03-22T19:56:50.182Z,50.30
2019-03-22T19:59:22.064Z,50.40
2019-03-22T20:01:52.396Z,50.50
2019-03-22T20:04:22.699Z,50.60
2019-03-22T20:06:52.969Z,51.30
2019-03-22T20:09:23.200Z,50.70
2019-03-22T20:11:53.482Z,51.40
2019-03-22T20:14:23.663Z,51.10
2019-03-22T20:16:53.911Z,51.10
2019-03-22T20:19:24.134Z,51.40
2019-03-22T20:21:54.449Z,51.40
2019-03-22T20:24:24.711Z,51.70
2019-03-22T20:26:56.029Z,51.40
2019-03-22T20:29:26.322Z,51.40
2019-03-22T20:31:56.662Z,51.40
2019-03-22T20:34:26.931Z,51.80
2019-03-22T20:36:57.249Z,52.10
2019-03-22T20:39:27.476Z,52.10
2019-03-22T20:41:57.727Z,51.90
2019-03-22T20:44:33.826Z,51.80
2019-03-22T20:47:00.239Z,52.50
2019-03-22T20:49:30.536Z,52.60
2019-03-22T20:52:00.799Z,52.80
2019-03-22T20:54:31.184Z,52.90
2019-03-22T20:57:01.441Z,52.70
2019-03-22T20:59:31.687Z,53.10
2019-03-22T21:02:02.046Z,53.20
2019-03-22T21:04:32.292Z,53.40
2019-03-22T21:07:02.563Z,53.50
2019-03-22T21:09:32.927Z,53.60
2019-03-22T21:12:03.997Z,53.60
2019-03-22T21:14:34.433Z,53.70
2019-03-22T21:17:04.750Z,53.70
2019-03-22T21:19:34.981Z,53.80
2019-03-22T21:22:06.400Z,53.90
2019-03-22T21:24:38.357Z,53.90
2019-03-22T21:27:15.533Z,54.00
2019-03-22T21:29:44.514Z,54.00
2019-03-22T21:32:12.580Z,54.00
2019-03-22T21:34:44.157Z,54.00
2019-03-22T21:37:14.819Z,54.40
2019-03-22T21:39:45.063Z,54.50
2019-03-22T21:42:15.323Z,54.50
2019-03-22T21:44:45.609Z,54.60
2019-03-22T21:47:15.956Z,54.70
2019-03-22T21:49:46.292Z,54.60
2019-03-22T21:52:16.540Z,54.80
2019-03-22T21:54:46.833Z,54.80
2019-03-22T21:57:18.133Z,55.00
2019-03-22T21:59:48.411Z,55.00
2019-03-22T22:02:19.007Z,55.20
2019-03-22T22:04:49.244Z,55.20
2019-03-22T22:07:19.455Z,55.40
2019-03-22T22:09:49.755Z,55.50
2019-03-22T22:12:19.984Z,55.70
2019-03-22T22:14:50.226Z,55.80
2019-03-22T22:17:20.503Z,55.90
2019-03-22T22:19:50.847Z,55.90
2019-03-22T22:22:21.068Z,55.90
2019-03-22T22:24:51.310Z,56.20
2019-03-22T22:27:21.535Z,56.20
2019-03-22T22:29:51.766Z,56.30
2019-03-22T22:32:22.087Z,56.30
2019-03-22T22:34:52.319Z,56.40
2019-03-22T22:37:23.703Z,56.40
2019-03-22T22:39:54.012Z,56.50
2019-03-22T22:42:24.296Z,56.50
2019-03-22T22:44:56.733Z,56.50
2019-03-22T22:47:26.948Z,56.50
2019-03-22T22:49:57.190Z,56.70
2019-03-22T22:52:27.391Z,56.70
2019-03-22T22:54:57.748Z,56.70
2019-03-22T22:57:27.963Z,56.80
2019-03-22T22:59:58.271Z,56.90
2019-03-22T23:02:28.598Z,56.90
2019-03-22T23:04:58.832Z,57.10
2019-03-22T23:07:29.130Z,57.10
2019-03-22T23:09:59.373Z,57.40
2019-03-22T23:12:29.608Z,57.30
2019-03-22T23:15:01.309Z,57.30
2019-03-22T23:17:31.803Z,57.40
2019-03-22T23:20:02.155Z,57.40
2019-03-22T23:22:32.400Z,57.60
2019-03-22T23:25:02.643Z,57.80
2019-03-22T23:27:32.908Z,57.70
2019-03-22T23:30:04.228Z,57.80
2019-03-22T23:32:34.534Z,58.00
2019-03-22T23:35:05.289Z,58.00
2019-03-22T23:37:35.608Z,57.80
2019-03-22T23:40:06.978Z,57.90
2019-03-22T23:42:37.447Z,57.90
2019-03-22T23:45:08.643Z,57.90
2019-03-22T23:47:38.970Z,58.00
2019-03-22T23:50:09.950Z,57.90
2019-03-22T23:52:40.215Z,58.50
2019-03-22T23:55:10.523Z,57.90
2019-03-22T23:57:40.876Z,57.90
